Time;durP1;ratioP1;P1;durP2;ratioP2;P2;SDS_P1;SDS_P2;PMS_P1;PMS_P2;Temp;Humidity;BMP_temperature;BMP_pressure;BME280_temperature;BME280_humidity;BME280_pressure;Samples;Min_cycle;Max_cycle;Signal;HPM_P1;HPM_P2
2022/01/12 00:02:14;;;;;;;79.65;31.27;;;5.10;99.90;;;;;;5010651;28;20414;-74
2022/01/12 00:04:41;;;;;;;75.78;31.00;;;5.10;99.90;;;;;;5018144;28;20018;-74
2022/01/12 00:07:06;;;;;;;76.03;29.52;;;5.10;99.90;;;;;;5023914;28;20495;-74
2022/01/12 00:09:32;;;;;;;76.15;29.77;;;5.10;99.90;;;;;;5011408;28;20084;-74
2022/01/12 00:11:59;;;;;;;72.53;28.75;;;5.10;99.90;;;;;;5027410;28;20104;-74
2022/01/12 00:14:27;;;;;;;76.57;29.88;;;5.10;99.90;;;;;;5027043;28;20125;-73
2022/01/12 00:16:58;;;;;;;73.07;28.50;;;5.10;99.90;;;;;;5030333;28;20041;-74
2022/01/12 00:19:26;;;;;;;68.80;28.40;;;5.10;99.90;;;;;;5030916;28;20450;-74
2022/01/12 00:21:52;;;;;;;72.90;29.13;;;5.10;99.90;;;;;;5030333;28;20064;-74
2022/01/12 00:24:18;;;;;;;70.88;28.85;;;5.10;99.90;;;;;;5026327;28;20025;-74
2022/01/12 00:33:08;;;;;;;73.82;27.70;;;5.10;99.90;;;;;;5010745;28;20150;-74
2022/01/12 00:34:57;;;;;;;70.70;29.05;;;5.10;99.90;;;;;;5017896;28;20048;-74
2022/01/12 00:37:22;;;;;;;70.65;28.48;;;5.10;99.90;;;;;;5026853;28;20030;-74
2022/01/12 00:39:48;;;;;;;63.13;26.25;;;5.10;99.90;;;;;;5030280;28;20017;-74
2022/01/12 00:42:14;;;;;;;73.97;27.90;;;5.10;99.90;;;;;;5030303;28;20548;-74
2022/01/12 00:44:44;;;;;;;74.15;28.88;;;5.10;99.90;;;;;;5021671;28;20559;-74
2022/01/12 00:47:11;;;;;;;71.50;27.52;;;5.10;99.90;;;;;;5010303;28;20099;-74
2022/01/12 00:49:36;;;;;;;72.00;27.73;;;5.10;99.90;;;;;;5010512;28;20029;-74
2022/01/12 00:52:03;;;;;;;74.07;27.98;;;5.10;99.90;;;;;;5010546;28;20026;-74
2022/01/12 00:54:28;;;;;;;74.47;28.52;;;5.20;99.90;;;;;;5015704;28;20032;-74
2022/01/12 00:56:54;;;;;;;67.45;26.70;;;5.10;99.90;;;;;;5033270;28;20471;-74
2022/01/12 00:59:20;;;;;;;69.50;27.90;;;5.10;99.90;;;;;;5024373;28;20454;-74
2022/01/12 01:01:45;;;;;;;72.18;27.42;;;5.10;99.90;;;;;;5029837;28;20054;-74
2022/01/12 01:04:11;;;;;;;66.43;27.55;;;5.10;99.90;;;;;;5019953;28;20034;-74
2022/01/12 01:06:37;;;;;;;76.57;30.42;;;5.20;99.90;;;;;;5033614;28;20101;-74
2022/01/12 01:09:04;;;;;;;70.00;28.73;;;5.20;99.90;;;;;;5031421;28;20036;-74
2022/01/12 01:11:31;;;;;;;70.93;28.25;;;5.20;99.90;;;;;;5014134;28;20022;-74
2022/01/12 01:16:30;;;;;;;70.38;27.25;;;5.30;99.90;;;;;;5032322;28;20025;-74
2022/01/12 01:27:07;;;;;;;67.68;26.70;;;5.30;99.90;;;;;;5013971;28;20041;-74
2022/01/12 01:29:33;;;;;;;59.72;25.42;;;5.30;99.90;;;;;;5013448;28;20022;-74
2022/01/12 01:31:59;;;;;;;57.47;24.60;;;5.30;99.90;;;;;;5013904;28;20025;-74
2022/01/12 01:34:27;;;;;;;62.30;25.73;;;5.30;99.90;;;;;;5021809;28;20033;-74
2022/01/12 01:36:54;;;;;;;56.45;25.35;;;5.30;99.90;;;;;;5013791;28;20080;-74
2022/01/12 01:39:25;;;;;;;53.70;24.13;;;5.30;99.90;;;;;;5013237;28;20034;-73
2022/01/12 01:41:55;;;;;;;59.90;25.23;;;5.30;99.90;;;;;;5013632;28;20491;-74
2022/01/12 01:55:22;;;;;;;68.03;27.00;;;5.30;99.90;;;;;;5015390;28;20088;-73
2022/01/12 01:57:48;;;;;;;64.32;28.13;;;5.30;99.90;;;;;;5020890;28;20057;-74
2022/01/12 02:00:17;;;;;;;63.42;27.58;;;5.30;99.90;;;;;;5028867;28;20387;-74
2022/01/12 02:02:44;;;;;;;71.55;29.90;;;5.30;99.90;;;;;;5032711;28;20529;-73
2022/01/12 02:05:12;;;;;;;65.32;29.08;;;5.30;99.90;;;;;;5032534;28;20033;-74
2022/01/12 02:07:37;;;;;;;64.90;27.70;;;5.30;99.90;;;;;;5014953;28;20163;-74
2022/01/12 02:10:04;;;;;;;69.88;28.73;;;5.30;99.90;;;;;;5012886;28;20060;-74
2022/01/12 02:12:30;;;;;;;69.88;29.40;;;5.30;99.90;;;;;;5018147;28;20022;-74
2022/01/12 02:14:57;;;;;;;74.95;29.92;;;5.30;99.90;;;;;;5032403;28;20036;-74
2022/01/12 02:17:28;;;;;;;71.47;28.58;;;5.30;99.90;;;;;;5024328;28;20026;-74
2022/01/12 02:20:12;;;;;;;70.88;29.88;;;5.30;99.90;;;;;;5023034;28;20061;-74
2022/01/12 02:36:28;;;;;;;84.75;30.45;;;5.40;99.90;;;;;;5018440;28;20079;-74
2022/01/12 02:41:39;;;;;;;83.93;30.20;;;5.40;99.90;;;;;;5032359;28;20390;-74
2022/01/12 02:54:52;;;;;;;83.53;31.98;;;5.40;99.90;;;;;;5031371;28;20036;-74
2022/01/12 02:57:19;;;;;;;82.60;31.00;;;5.50;99.90;;;;;;5013555;28;20037;-74
2022/01/12 03:02:34;;;;;;;81.95;31.60;;;5.40;99.90;;;;;;5013252;28;20137;-74
2022/01/12 03:07:39;;;;;;;81.68;32.33;;;5.40;99.90;;;;;;5013770;28;20387;-74
2022/01/12 03:10:10;;;;;;;81.22;31.00;;;5.50;99.90;;;;;;5012041;28;20050;-74
2022/01/12 03:12:46;;;;;;;84.78;32.25;;;5.50;99.90;;;;;;5030126;28;20029;-74
2022/01/12 03:15:12;;;;;;;82.65;31.92;;;5.50;99.90;;;;;;5030972;28;20068;-74
2022/01/12 03:17:37;;;;;;;88.38;33.33;;;5.50;99.90;;;;;;5029200;28;20025;-74
2022/01/12 03:20:04;;;;;;;81.00;31.45;;;5.50;99.90;;;;;;5024423;28;20441;-74
2022/01/12 03:22:30;;;;;;;89.97;32.53;;;5.40;99.90;;;;;;5019768;28;20501;-74
2022/01/12 03:24:56;;;;;;;86.72;33.70;;;5.40;99.90;;;;;;5031358;28;20109;-74
2022/01/12 03:27:24;;;;;;;86.82;32.97;;;5.40;99.90;;;;;;5022543;28;20475;-74
2022/01/12 03:29:54;;;;;;;90.75;32.72;;;5.40;99.90;;;;;;5011401;28;20391;-74
2022/01/12 03:32:26;;;;;;;90.20;33.95;;;5.40;99.90;;;;;;5011478;28;20049;-74
2022/01/12 03:34:57;;;;;;;91.15;33.70;;;5.40;99.90;;;;;;5011788;28;20121;-74
2022/01/12 03:37:41;;;;;;;99.85;35.72;;;5.40;99.90;;;;;;5018172;28;20030;-74
2022/01/12 03:40:09;;;;;;;94.50;33.45;;;5.40;99.90;;;;;;5030821;28;20033;-74
2022/01/12 03:42:35;;;;;;;89.97;34.05;;;5.40;99.90;;;;;;5031178;28;20398;-74
2022/01/12 03:45:00;;;;;;;92.47;34.35;;;5.40;99.90;;;;;;5024815;28;20440;-74
2022/01/12 03:47:26;;;;;;;96.57;35.28;;;5.40;99.90;;;;;;5019666;28;20038;-74
2022/01/12 03:49:51;;;;;;;95.88;33.85;;;5.50;99.90;;;;;;5030241;28;20099;-74
2022/01/12 03:52:17;;;;;;;101.72;34.65;;;5.50;99.90;;;;;;5030969;28;20018;-74
2022/01/12 03:54:43;;;;;;;111.28;36.35;;;5.50;99.90;;;;;;5029654;28;20503;-74
2022/01/12 03:57:08;;;;;;;98.85;34.60;;;5.40;99.90;;;;;;5021100;28;20022;-74
2022/01/12 03:59:34;;;;;;;108.53;33.60;;;5.40;99.90;;;;;;5011234;28;20398;-74
2022/01/12 04:01:59;;;;;;;102.07;35.38;;;5.40;99.90;;;;;;5011014;28;20080;-74
2022/01/12 04:04:34;;;;;;;106.43;35.80;;;5.50;99.90;;;;;;5019764;28;20040;-74
2022/01/12 04:09:45;;;;;;;104.78;35.25;;;5.50;99.90;;;;;;5010994;28;20037;-74
2022/01/12 04:12:11;;;;;;;113.85;37.15;;;5.50;99.90;;;;;;5011270;28;20400;-74
2022/01/12 04:14:36;;;;;;;115.35;36.90;;;5.50;99.90;;;;;;5020676;28;20041;-74
2022/01/12 04:17:02;;;;;;;110.70;36.85;;;5.50;99.90;;;;;;5017460;28;20030;-74
2022/01/12 04:19:28;;;;;;;116.20;38.95;;;5.50;99.90;;;;;;5010883;28;20476;-74
2022/01/12 04:21:54;;;;;;;124.10;37.63;;;5.50;99.90;;;;;;5010520;28;20491;-74
2022/01/12 04:24:19;;;;;;;123.47;37.90;;;5.50;99.90;;;;;;5011095;28;20030;-74
2022/01/12 04:26:45;;;;;;;125.75;38.47;;;5.50;99.90;;;;;;5010863;28;20022;-74
2022/01/12 04:29:12;;;;;;;122.47;38.45;;;5.50;99.90;;;;;;5012269;28;20507;-74
2022/01/12 04:31:38;;;;;;;125.72;39.78;;;5.40;99.90;;;;;;5014153;28;20414;-74
2022/01/12 04:34:04;;;;;;;120.88;37.78;;;5.50;99.90;;;;;;5021450;28;20076;-74
2022/01/12 04:36:31;;;;;;;131.60;39.22;;;5.50;99.90;;;;;;5027644;28;20438;-74
2022/01/12 04:38:57;;;;;;;135.00;39.05;;;5.40;99.90;;;;;;5029447;28;20025;-74
2022/01/12 04:41:24;;;;;;;126.90;38.72;;;5.40;99.90;;;;;;5034733;28;20033;-74
2022/01/12 04:43:50;;;;;;;131.10;39.10;;;5.40;99.90;;;;;;5034518;28;20083;-74
2022/01/12 04:51:08;;;;;;;127.18;38.92;;;5.40;99.90;;;;;;5033882;28;20108;-74
2022/01/12 04:53:33;;;;;;;121.38;37.95;;;5.40;99.90;;;;;;5033946;28;20120;-75
2022/01/12 04:55:59;;;;;;;120.35;37.40;;;5.40;99.90;;;;;;5027407;28;20032;-74
2022/01/12 04:58:27;;;;;;;125.53;38.95;;;5.40;99.90;;;;;;5033559;28;20025;-74
2022/01/12 05:00:56;;;;;;;143.93;37.47;;;5.40;99.90;;;;;;5034206;28;20037;-74
2022/01/12 05:14:07;;;;;;;141.80;37.30;;;5.20;99.90;;;;;;4952748;28;20493;-74
2022/01/12 05:16:33;;;;;;;120.07;35.58;;;5.10;99.90;;;;;;4953042;29;20271;-74
2022/01/12 05:19:00;;;;;;;102.47;36.05;;;5.20;99.90;;;;;;4970469;28;20092;-74
2022/01/12 05:21:25;;;;;;;111.55;34.10;;;5.10;99.90;;;;;;4972457;28;20054;-74
2022/01/12 05:23:52;;;;;;;131.73;34.33;;;5.10;99.90;;;;;;4972042;28;20452;-74
2022/01/12 05:26:17;;;;;;;104.80;33.33;;;5.10;99.90;;;;;;4970546;28;20078;-74
2022/01/12 05:28:43;;;;;;;173.02;33.00;;;5.00;99.90;;;;;;4952869;29;20460;-74
2022/01/12 05:31:10;;;;;;;139.23;30.67;;;5.00;99.90;;;;;;4952795;29;20046;-74
2022/01/12 05:33:37;;;;;;;93.97;31.75;;;5.00;99.90;;;;;;4953736;28;20169;-74
2022/01/12 05:36:05;;;;;;;95.25;30.13;;;4.90;99.90;;;;;;4952810;29;20509;-74
2022/01/12 05:38:31;;;;;;;265.10;32.33;;;4.90;99.90;;;;;;4952694;29;20094;-74
2022/01/12 05:41:04;;;;;;;86.35;28.52;;;4.90;99.90;;;;;;4952539;28;20113;-74
2022/01/12 05:43:31;;;;;;;85.20;28.45;;;4.90;99.90;;;;;;4957757;28;20117;-74
2022/01/12 05:46:09;;;;;;;87.93;28.60;;;4.80;99.90;;;;;;4972069;28;20536;-74
2022/01/12 05:51:19;;;;;;;86.17;25.10;;;4.80;99.90;;;;;;5019797;28;20049;-73
2022/01/12 05:53:44;;;;;;;71.00;25.92;;;4.70;99.90;;;;;;5025209;28;20059;-72
2022/01/12 05:56:10;;;;;;;82.93;25.52;;;4.70;99.90;;;;;;5043968;28;20404;-72
2022/01/12 05:58:36;;;;;;;66.50;24.95;;;4.70;99.90;;;;;;5047085;28;20017;-72
2022/01/12 06:01:01;;;;;;;86.75;25.92;;;4.70;99.90;;;;;;5038639;28;20576;-73
2022/01/12 06:03:27;;;;;;;102.30;24.77;;;4.60;99.90;;;;;;5040681;28;20025;-73
2022/01/12 06:05:53;;;;;;;63.70;24.05;;;4.60;99.90;;;;;;5038091;28;20036;-72
2022/01/12 06:08:18;;;;;;;60.80;23.08;;;4.60;99.90;;;;;;5037291;28;20055;-73
2022/01/12 06:10:44;;;;;;;81.68;24.80;;;4.50;99.90;;;;;;5037242;28;20471;-73
2022/01/12 06:13:10;;;;;;;65.05;23.25;;;4.50;99.90;;;;;;5019698;28;20033;-73
2022/01/12 06:15:35;;;;;;;79.47;24.58;;;4.40;99.90;;;;;;5032697;28;20029;-73
2022/01/12 06:18:01;;;;;;;52.30;23.35;;;4.40;99.90;;;;;;4999621;28;20164;-72
2022/01/12 06:20:26;;;;;;;61.00;22.52;;;4.40;99.90;;;;;;5027374;28;20152;-73
2022/01/12 06:22:52;;;;;;;65.57;24.15;;;4.40;99.90;;;;;;5050409;28;20101;-73
2022/01/12 06:25:18;;;;;;;60.03;22.05;;;4.30;99.90;;;;;;5031090;28;20029;-73
2022/01/12 06:27:51;;;;;;;49.35;22.50;;;4.30;99.90;;;;;;5035557;28;20025;-73
2022/01/12 06:32:56;;;;;;;55.75;21.80;;;4.20;99.90;;;;;;5028821;28;20040;-74
2022/01/12 06:35:22;;;;;;;49.72;21.27;;;4.20;99.90;;;;;;5021202;28;20029;-74
2022/01/12 06:37:48;;;;;;;50.65;21.98;;;4.20;99.90;;;;;;5029595;28;20125;-73
2022/01/12 06:40:16;;;;;;;43.95;20.98;;;4.20;99.90;;;;;;5022789;28;20034;-73
2022/01/12 06:42:41;;;;;;;37.92;20.27;;;4.10;99.90;;;;;;5022875;28;20055;-74
2022/01/12 06:45:08;;;;;;;41.55;21.55;;;4.10;99.90;;;;;;5013323;28;20082;-73
2022/01/12 06:47:34;;;;;;;40.03;20.50;;;4.10;99.90;;;;;;5029282;28;20080;-72
2022/01/12 06:49:59;;;;;;;40.65;20.80;;;4.10;99.90;;;;;;5023472;28;20025;-73
2022/01/12 06:52:25;;;;;;;40.40;21.25;;;4.10;99.90;;;;;;5011939;28;20022;-73
2022/01/12 06:54:50;;;;;;;38.33;20.60;;;4.10;99.90;;;;;;5012821;28;20042;-72
2022/01/12 06:57:17;;;;;;;46.35;21.52;;;4.10;99.90;;;;;;5025499;28;20028;-73
2022/01/12 06:59:43;;;;;;;51.17;20.92;;;4.00;99.90;;;;;;5020315;28;20483;-73
2022/01/12 07:02:09;;;;;;;49.67;20.60;;;4.00;99.90;;;;;;5016751;28;20412;-73
2022/01/12 07:04:35;;;;;;;62.30;22.38;;;4.00;99.90;;;;;;5029819;28;20041;-73
2022/01/12 07:07:02;;;;;;;80.43;24.55;;;4.00;99.90;;;;;;5025419;28;20111;-73
2022/01/12 07:09:27;;;;;;;49.00;22.10;;;3.90;99.90;;;;;;5029344;28;20060;-73
2022/01/12 07:11:53;;;;;;;58.97;24.40;;;3.90;99.90;;;;;;5043169;28;20049;-73
2022/01/12 07:14:18;;;;;;;92.57;28.83;;;3.90;99.90;;;;;;5033107;28;20029;-73
2022/01/12 07:16:44;;;;;;;73.32;31.02;;;3.90;99.90;;;;;;5021964;28;20554;-72
2022/01/12 07:19:10;;;;;;;58.58;24.98;;;3.80;99.90;;;;;;5025985;28;20013;-73
2022/01/12 07:21:35;;;;;;;86.13;24.95;;;3.80;99.90;;;;;;5018632;28;20510;-73
2022/01/12 07:24:01;;;;;;;57.22;22.83;;;3.80;99.90;;;;;;5036254;28;20033;-73
2022/01/12 07:26:26;;;;;;;74.53;22.90;;;3.90;99.90;;;;;;5034985;28;20025;-73
2022/01/12 07:28:53;;;;;;;53.47;22.63;;;3.90;99.90;;;;;;5036356;28;20036;-73
2022/01/12 07:31:19;;;;;;;59.00;22.98;;;3.90;99.90;;;;;;5031735;28;20104;-72
2022/01/12 07:33:44;;;;;;;48.40;23.33;;;3.80;99.90;;;;;;5014881;28;20439;-73
2022/01/12 07:36:10;;;;;;;47.25;22.35;;;3.80;99.90;;;;;;5033053;28;20026;-73
2022/01/12 07:38:36;;;;;;;44.30;22.48;;;3.80;99.90;;;;;;5033005;28;20029;-73
2022/01/12 07:41:01;;;;;;;45.85;21.15;;;3.80;99.90;;;;;;5020021;28;20455;-72
2022/01/12 07:43:27;;;;;;;43.88;21.73;;;3.80;99.90;;;;;;5035628;28;20029;-73
2022/01/12 07:45:52;;;;;;;45.65;20.63;;;3.90;99.90;;;;;;5037222;28;20278;-73
2022/01/12 07:48:18;;;;;;;46.08;20.52;;;3.80;99.90;;;;;;5039545;28;20450;-73
2022/01/12 07:50:44;;;;;;;45.08;22.00;;;3.80;99.90;;;;;;5043939;28;20074;-72
2022/01/12 07:53:13;;;;;;;46.05;21.33;;;3.80;99.90;;;;;;5037780;28;20045;-72
2022/01/12 07:55:38;;;;;;;55.47;21.80;;;3.80;99.90;;;;;;5039307;28;20021;-73
2022/01/12 07:58:04;;;;;;;49.38;22.33;;;3.90;99.90;;;;;;5036506;28;20510;-72
2022/01/12 08:00:30;;;;;;;56.63;21.23;;;3.90;99.90;;;;;;5039757;28;20072;-73
2022/01/12 08:02:55;;;;;;;48.28;21.13;;;3.90;99.90;;;;;;5040100;28;20048;-72
2022/01/12 08:05:21;;;;;;;44.58;20.65;;;3.90;99.90;;;;;;5037083;28;20034;-72
2022/01/12 08:07:48;;;;;;;43.38;19.30;;;3.90;99.90;;;;;;5040413;28;20028;-72
2022/01/12 08:10:14;;;;;;;37.65;19.60;;;3.90;99.90;;;;;;5042871;28;20082;-72
2022/01/12 08:12:40;;;;;;;43.08;20.27;;;3.90;99.90;;;;;;5042318;28;20021;-72
2022/01/12 08:15:07;;;;;;;36.72;18.10;;;4.00;99.90;;;;;;5047845;28;20033;-72
2022/01/12 08:17:34;;;;;;;39.30;18.63;;;4.00;99.90;;;;;;5042358;28;20026;-72
2022/01/12 08:20:01;;;;;;;39.85;17.38;;;4.00;99.90;;;;;;5035669;28;20086;-74
2022/01/12 08:22:27;;;;;;;39.30;17.50;;;4.00;99.90;;;;;;5045836;28;20084;-72
2022/01/12 08:24:52;;;;;;;30.58;15.82;;;4.00;99.90;;;;;;5043022;28;20045;-72
2022/01/12 08:27:18;;;;;;;31.35;16.30;;;4.00;99.90;;;;;;5037331;28;20025;-72
2022/01/12 08:29:44;;;;;;;28.25;15.25;;;4.00;99.90;;;;;;5040656;28;20017;-72
2022/01/12 08:32:09;;;;;;;30.42;15.60;;;4.00;99.90;;;;;;5034339;28;20044;-72
2022/01/12 08:34:35;;;;;;;31.15;15.02;;;4.00;99.90;;;;;;5021903;28;20037;-72
2022/01/12 08:37:01;;;;;;;29.58;15.60;;;4.00;99.90;;;;;;5017747;28;20433;-72
2022/01/12 08:39:26;;;;;;;39.88;15.27;;;4.00;99.90;;;;;;5035269;28;20052;-72
2022/01/12 08:41:52;;;;;;;31.13;14.93;;;4.00;99.90;;;;;;5045703;28;20047;-72
2022/01/12 08:44:18;;;;;;;33.83;14.30;;;4.00;99.90;;;;;;5041538;28;20025;-72
2022/01/12 08:46:43;;;;;;;28.60;14.25;;;4.00;99.90;;;;;;5042124;28;20017;-72
2022/01/12 08:49:09;;;;;;;29.63;13.80;;;4.00;99.90;;;;;;5033631;28;20062;-72
2022/01/12 08:51:36;;;;;;;35.08;13.93;;;4.10;99.90;;;;;;5044969;28;20025;-72
2022/01/12 08:54:03;;;;;;;26.02;13.65;;;4.00;99.90;;;;;;5025692;28;20487;-72
2022/01/12 08:56:29;;;;;;;25.88;13.60;;;4.10;99.90;;;;;;5033297;28;20389;-72
2022/01/12 08:58:54;;;;;;;30.70;14.02;;;4.10;99.90;;;;;;5026139;28;20025;-72
2022/01/12 09:01:20;;;;;;;30.27;13.93;;;4.10;99.90;;;;;;5028704;28;20475;-72
2022/01/12 09:03:47;;;;;;;58.90;15.48;;;4.10;99.90;;;;;;5031217;28;20052;-75
2022/01/12 09:06:13;;;;;;;48.42;15.02;;;4.10;99.90;;;;;;5033439;28;20080;-72
2022/01/12 09:08:40;;;;;;;52.45;13.75;;;4.10;99.90;;;;;;5031865;28;20022;-72
2022/01/12 09:11:06;;;;;;;55.65;13.00;;;4.10;99.90;;;;;;5021853;28;20018;-73
2022/01/12 09:13:32;;;;;;;84.25;13.35;;;4.10;99.90;;;;;;5023754;28;20510;-72
2022/01/12 09:15:58;;;;;;;74.82;14.10;;;4.10;99.90;;;;;;5033705;28;20056;-72
2022/01/12 09:18:23;;;;;;;25.95;12.40;;;4.20;99.90;;;;;;5027035;28;20072;-72
2022/01/12 09:20:49;;;;;;;34.33;12.38;;;4.20;99.90;;;;;;5017071;28;20411;-72
2022/01/12 09:23:15;;;;;;;49.33;13.00;;;4.20;99.90;;;;;;5035633;28;20025;-72
2022/01/12 09:25:41;;;;;;;28.73;12.43;;;4.30;99.90;;;;;;5042064;28;20037;-72
2022/01/12 09:28:08;;;;;;;44.22;12.98;;;4.30;99.90;;;;;;5039560;28;20388;-73
2022/01/12 09:30:33;;;;;;;35.50;11.95;;;4.40;99.90;;;;;;5041149;28;20024;-72
2022/01/12 09:32:59;;;;;;;31.27;12.43;;;4.40;99.90;;;;;;5041590;28;20084;-72
2022/01/12 09:35:26;;;;;;;28.02;12.55;;;4.40;99.90;;;;;;5021110;28;20060;-72
2022/01/12 09:37:52;;;;;;;52.63;12.60;;;4.50;99.90;;;;;;5032271;28;20036;-72
2022/01/12 09:40:18;;;;;;;59.33;13.00;;;4.50;99.90;;;;;;5014072;28;20026;-72
2022/01/12 09:42:46;;;;;;;44.67;12.00;;;4.60;99.90;;;;;;5040359;28;20973;-73
2022/01/12 09:45:15;;;;;;;45.30;10.93;;;4.60;99.90;;;;;;5042067;28;20033;-72
2022/01/12 09:47:42;;;;;;;31.45;11.10;;;4.70;99.90;;;;;;5037313;28;20113;-72
2022/01/12 09:50:11;;;;;;;52.20;10.90;;;4.70;99.90;;;;;;5044655;28;20009;-73
2022/01/12 09:52:37;;;;;;;46.95;11.27;;;4.80;99.90;;;;;;5036606;28;20041;-73
2022/01/12 09:55:04;;;;;;;27.85;11.30;;;4.80;99.90;;;;;;5036682;28;20394;-72
2022/01/12 09:57:30;;;;;;;71.65;11.40;;;4.80;99.90;;;;;;5041203;28;20026;-72
2022/01/12 09:59:56;;;;;;;28.13;10.40;;;4.90;99.90;;;;;;5041790;28;20041;-72
2022/01/12 10:02:22;;;;;;;40.97;11.60;;;4.90;99.90;;;;;;5042786;28;20025;-72
2022/01/12 10:04:58;;;;;;;64.57;11.82;;;5.00;99.90;;;;;;5030800;28;20029;-72
2022/01/12 10:07:25;;;;;;;90.70;14.20;;;5.00;99.90;;;;;;5029761;28;20025;-72
2022/01/12 10:09:54;;;;;;;31.58;12.13;;;5.10;99.90;;;;;;5047041;28;20032;-72
2022/01/12 10:12:24;;;;;;;39.67;12.27;;;5.10;99.90;;;;;;5037276;28;20144;-72
2022/01/12 10:14:49;;;;;;;32.58;13.05;;;5.10;99.90;;;;;;5042254;28;20116;-72
2022/01/12 10:17:17;;;;;;;49.58;14.15;;;5.20;99.90;;;;;;5052793;28;20112;-72
2022/01/12 10:19:43;;;;;;;42.42;13.98;;;5.30;99.90;;;;;;5041506;28;20060;-72
2022/01/12 10:22:11;;;;;;;37.33;14.38;;;5.30;99.90;;;;;;5019045;28;20120;-72
2022/01/12 10:24:42;;;;;;;74.70;15.73;;;5.30;99.90;;;;;;5045027;28;20032;-72
2022/01/12 10:27:19;;;;;;;34.95;13.63;;;5.30;99.90;;;;;;5044288;28;20021;-73
2022/01/12 10:29:46;;;;;;;34.63;12.25;;;5.40;99.90;;;;;;5049481;28;20367;-72
2022/01/12 10:32:17;;;;;;;32.50;13.20;;;5.40;99.90;;;;;;5017069;28;20038;-73
2022/01/12 10:34:45;;;;;;;43.03;14.15;;;5.40;99.90;;;;;;5016798;28;20407;-72
2022/01/12 10:37:14;;;;;;;37.17;13.75;;;5.50;99.90;;;;;;5032515;28;20048;-72
2022/01/12 10:39:43;;;;;;;68.95;14.25;;;5.50;99.90;;;;;;5041806;28;20021;-72
2022/01/12 10:42:14;;;;;;;35.65;14.05;;;5.50;99.90;;;;;;5039188;28;20076;-72
2022/01/12 10:44:43;;;;;;;39.47;14.65;;;5.60;99.90;;;;;;5052724;28;20139;-72
2022/01/12 10:47:10;;;;;;;51.65;14.85;;;5.60;99.90;;;;;;5052516;28;20020;-72
2022/01/12 10:49:37;;;;;;;38.03;14.55;;;5.60;99.90;;;;;;5052428;28;20021;-72
2022/01/12 10:52:07;;;;;;;60.20;14.50;;;5.60;99.90;;;;;;5032364;28;20031;-73
2022/01/12 10:54:50;;;;;;;32.67;14.57;;;5.60;99.90;;;;;;5035554;28;20201;-72
2022/01/12 10:57:26;;;;;;;70.40;13.55;;;5.70;99.90;;;;;;5037950;28;20033;-73
2022/01/12 11:00:09;;;;;;;;;;;5.70;99.90;;;;;;5035920;28;20032;-72
2022/01/12 11:02:39;;;;;;;38.63;13.85;;;5.70;99.90;;;;;;5045185;28;19909;-72
2022/01/12 11:05:07;;;;;;;32.60;13.93;;;5.70;99.90;;;;;;5044247;28;20079;-72
2022/01/12 11:07:34;;;;;;;36.55;15.07;;;5.80;99.90;;;;;;5033467;28;20083;-72
2022/01/12 11:10:03;;;;;;;56.45;14.90;;;5.80;99.90;;;;;;5032074;28;20030;-72
2022/01/12 11:12:29;;;;;;;88.80;14.80;;;5.80;99.90;;;;;;5031951;28;20160;-72
2022/01/12 11:14:55;;;;;;;61.45;14.85;;;5.90;99.90;;;;;;5032035;28;20065;-72
2022/01/12 11:17:20;;;;;;;34.38;15.13;;;5.90;99.90;;;;;;5034053;28;20040;-73
2022/01/12 11:20:03;;;;;;;36.42;14.73;;;5.90;99.90;;;;;;5047437;28;20407;-72
2022/01/12 11:22:40;;;;;;;43.45;15.00;;;5.90;99.90;;;;;;5040564;28;20068;-72
2022/01/12 11:25:21;;;;;;;34.97;15.48;;;5.90;99.90;;;;;;5043530;28;20021;-72
2022/01/12 11:27:51;;;;;;;59.05;15.10;;;5.90;99.90;;;;;;5030577;28;20136;-73
2022/01/12 11:30:20;;;;;;;71.20;14.82;;;5.90;99.90;;;;;;5045051;28;20013;-72
2022/01/12 11:32:55;;;;;;;78.47;15.75;;;5.90;99.90;;;;;;5037151;28;20017;-72
2022/01/12 11:35:30;;;;;;;67.07;15.95;;;6.00;99.90;;;;;;5035241;28;20455;-72
2022/01/12 11:37:59;;;;;;;52.17;16.08;;;6.00;99.90;;;;;;5034806;28;20545;-72
2022/01/12 11:40:36;;;;;;;69.68;16.90;;;6.00;99.90;;;;;;5035560;28;20037;-72
2022/01/12 11:43:02;;;;;;;64.22;16.92;;;6.00;99.90;;;;;;5034009;28;20037;-73
2022/01/12 11:45:28;;;;;;;64.07;16.58;;;6.00;99.90;;;;;;5033877;28;20037;-73
2022/01/12 11:47:54;;;;;;;50.80;16.25;;;6.00;99.90;;;;;;5035262;28;20356;-73
2022/01/12 11:50:19;;;;;;;52.55;15.85;;;6.00;99.90;;;;;;5039021;28;20074;-72
2022/01/12 11:52:45;;;;;;;41.20;13.93;;;6.10;99.90;;;;;;5036999;28;20017;-72
2022/01/12 11:55:14;;;;;;;73.15;14.38;;;6.10;99.90;;;;;;5041559;28;20025;-72
2022/01/12 11:57:45;;;;;;;44.10;15.20;;;6.10;99.90;;;;;;5034277;28;20032;-72
2022/01/12 12:00:16;;;;;;;54.22;16.25;;;6.20;99.90;;;;;;5034857;28;20387;-72
2022/01/12 12:02:50;;;;;;;67.80;17.08;;;6.20;99.90;;;;;;5032302;28;20033;-73
2022/01/12 12:05:18;;;;;;;85.38;16.95;;;6.20;99.90;;;;;;5041321;28;20021;-72
2022/01/12 12:07:50;;;;;;;90.00;18.88;;;6.20;99.90;;;;;;5023470;28;20065;-72
2022/01/12 12:10:18;;;;;;;72.78;20.63;;;6.30;99.90;;;;;;5014630;28;20031;-72
2022/01/12 12:12:44;;;;;;;77.57;20.75;;;6.30;99.90;;;;;;5027564;28;20025;-72
2022/01/12 12:15:11;;;;;;;104.22;17.58;;;6.40;99.90;;;;;;5032960;28;20364;-72
2022/01/12 12:17:39;;;;;;;52.88;15.57;;;6.40;99.90;;;;;;5038928;28;20026;-72
2022/01/12 12:20:09;;;;;;;75.18;16.92;;;6.40;99.90;;;;;;5039985;28;20402;-72
2022/01/12 12:22:39;;;;;;;87.97;19.20;;;6.40;99.90;;;;;;5035569;28;20349;-72
2022/01/12 12:25:09;;;;;;;58.85;20.38;;;6.40;99.90;;;;;;5038021;28;20081;-72
2022/01/12 12:27:36;;;;;;;67.10;19.90;;;6.50;99.90;;;;;;5038711;28;20024;-72
2022/01/12 12:30:05;;;;;;;113.38;18.88;;;6.40;99.90;;;;;;5038218;28;20584;-73
2022/01/12 12:32:43;;;;;;;50.92;16.02;;;6.50;99.90;;;;;;5037532;28;20028;-72
2022/01/12 12:35:10;;;;;;;123.50;15.98;;;6.50;99.90;;;;;;5040912;28;20029;-72
2022/01/12 12:37:40;;;;;;;48.10;15.60;;;6.50;99.90;;;;;;5033353;28;20479;-72
2022/01/12 12:40:30;;;;;;;107.47;16.55;;;6.40;99.90;;;;;;5029008;28;20534;-72
2022/01/12 12:43:06;;;;;;;48.25;16.83;;;6.50;99.90;;;;;;5044045;28;20037;-73
2022/01/12 12:45:49;;;;;;;70.00;17.35;;;6.50;99.90;;;;;;5041594;28;20526;-72
2022/01/12 12:48:17;;;;;;;82.20;15.88;;;6.50;99.90;;;;;;5033561;28;20080;-73
2022/01/12 12:50:44;;;;;;;66.55;17.10;;;6.50;99.90;;;;;;5032142;28;20022;-72
2022/01/12 12:53:10;;;;;;;56.65;16.98;;;6.60;99.90;;;;;;5040747;28;20463;-72
2022/01/12 12:55:38;;;;;;;68.43;17.65;;;6.60;99.90;;;;;;5037773;28;20022;-72
2022/01/12 12:58:05;;;;;;;71.63;19.33;;;6.60;99.90;;;;;;5041398;28;20029;-73
2022/01/12 13:00:32;;;;;;;65.30;19.25;;;6.60;99.90;;;;;;5037008;28;20379;-72
2022/01/12 13:02:59;;;;;;;78.85;19.45;;;6.60;99.90;;;;;;5039556;28;20127;-73
2022/01/12 13:05:27;;;;;;;67.68;20.35;;;6.60;99.90;;;;;;5045329;28;20047;-73
2022/01/12 13:07:52;;;;;;;103.75;21.67;;;6.70;99.90;;;;;;5047355;28;20013;-73
2022/01/12 13:10:26;;;;;;;88.82;22.42;;;6.70;99.90;;;;;;5046816;28;20386;-73
2022/01/12 13:12:58;;;;;;;80.75;23.15;;;6.70;99.90;;;;;;5043068;28;20095;-73
2022/01/12 13:15:33;;;;;;;129.07;24.35;;;6.70;99.90;;;;;;5043110;28;20497;-73
2022/01/12 13:18:23;;;;;;;90.80;25.35;;;6.80;99.90;;;;;;5046526;28;20017;-73
2022/01/12 13:21:07;;;;;;;68.05;25.58;;;6.70;99.90;;;;;;5041970;28;20094;-73
2022/01/12 13:23:47;;;;;;;103.47;25.48;;;6.70;99.90;;;;;;5042023;28;20105;-73
2022/01/12 13:26:15;;;;;;;78.18;25.10;;;6.70;99.90;;;;;;5037434;28;20095;-73
2022/01/12 13:28:44;;;;;;;79.63;25.17;;;6.70;99.90;;;;;;5041279;28;20017;-73
2022/01/12 13:31:12;;;;;;;97.70;27.17;;;6.80;99.90;;;;;;5030518;28;20055;-73
2022/01/12 13:33:39;;;;;;;82.57;26.83;;;6.80;99.90;;;;;;5039295;28;20112;-73
2022/01/12 13:36:25;;;;;;;85.63;27.50;;;6.70;99.90;;;;;;5037423;28;20027;-73
2022/01/12 13:39:03;;;;;;;85.50;26.63;;;6.80;99.90;;;;;;5031446;28;20050;-73
2022/01/12 13:41:31;;;;;;;88.28;28.02;;;6.80;99.90;;;;;;5040389;28;20013;-73
2022/01/12 13:44:07;;;;;;;83.15;26.58;;;6.80;99.90;;;;;;5040342;28;20033;-74
2022/01/12 13:46:52;;;;;;;80.90;23.92;;;6.80;99.90;;;;;;5037046;28;20025;-73
2022/01/12 13:51:55;;;;;;;99.45;25.92;;;6.80;99.90;;;;;;5035951;28;20065;-74
2022/01/12 13:54:21;;;;;;;107.65;27.92;;;6.80;99.90;;;;;;5041838;28;20041;-73
2022/01/12 13:56:51;;;;;;;97.32;29.10;;;6.80;99.90;;;;;;5036169;28;20053;-74
2022/01/12 13:59:18;;;;;;;83.45;27.52;;;6.80;99.90;;;;;;5034860;28;20036;-74
2022/01/12 14:01:45;;;;;;;106.53;26.05;;;6.80;99.90;;;;;;5037082;28;20356;-74
2022/01/12 14:04:21;;;;;;;85.38;27.00;;;6.80;99.90;;;;;;5040930;28;20086;-73
2022/01/12 14:06:51;;;;;;;105.80;28.98;;;6.80;99.90;;;;;;5033671;28;20036;-74